• Join FlightAware (Why Join?)
  • Login
  • US Flag 
09:56PM EDT


 

Airport Tracker/Info


-or-


 

Live Flight TrackerFlight Track Log ✈ XOJ552 ✈ 24-Oct-2013 ✈ KTZR - KBJC

Flight Track Log - Related Links

Times and Time Zones

All times are in EDT time to prevent confusion due to time zone crossing. See the XOJ552 flight status page for this flight to view local times or setup timezone preferences in your user account.

Time Position Orientation Groundspeed Altitude Reporting Facility
EDT Latitude Longitude Course Direction KTS MPH feet Rate Location/Type
03:46PM 39.8889 -83.1483 208° Southwest 153 176 1,400  Level Indianapolis Center
03:47PM 39.8503 -83.1750 208° Southwest 194 223 4,100 3,300 Climbing Indianapolis Center
03:48PM 39.8717 -83.2533 290° West 249 287 7,900 3,060 Climbing Indianapolis Center
03:49PM 39.9128 -83.3422 301° West 283 326 10,500 3,120 Climbing Indianapolis Center
03:50PM 39.9731 -83.4525 306° West 317 365 14,400 3,480 Climbing Indianapolis Center
03:51PM 40.0317 -83.5497 308° West 341 392 17,800 3,240 Climbing Indianapolis Center
03:52PM 40.0908 -83.6494 308° West 349 402 21,100 2,760 Climbing Indianapolis Center
03:53PM 40.1500 -83.7494 308° West 351 404 23,600 2,220 Climbing Indianapolis Center
03:54PM 40.2128 -83.8558 308° West 365 420 25,700 2,220 Climbing Indianapolis Center
03:55PM 40.2914 -83.9856 308° West 378 435 28,200 2,220 Climbing Indianapolis Center
03:56PM 40.3833 -84.0631 327° Northwest 392 451 30,300 1,500 Climbing Indianapolis Center
03:57PM 40.4775 -84.1378 329° Northwest 397 457 31,400 1,080 Climbing Indianapolis Center
03:58PM 40.5294 -84.2647 298° West 399 459 32,600 1,200 Climbing Indianapolis Center
03:59PM 40.5650 -84.4017 289° West 397 457 33,900 1,200 Climbing Indianapolis Center
04:00PM 40.6028 -84.5381 290° West 398 458 35,200 1,380 Climbing Indianapolis Center
04:01PM 40.6378 -84.6739 289° West 396 456 36,500 1,320 Climbing Chicago Center
04:02PM 40.6714 -84.7967 290° West 393 452 37,700 960 Climbing Chicago Center
04:03PM 40.7053 -84.9281 289° West 384 442 38,600 780 Climbing Chicago Center
04:04PM 40.7414 -85.0594 290° West 382 440 39,400 780 Climbing Chicago Center
04:05PM 40.7825 -85.2181 289° West 381 438 40,300 660 Climbing Chicago Center
04:06PM 40.8175 -85.3497 289° West 380 437 40,800 480 Climbing Chicago Center
04:07PM 40.8522 -85.4856 289° West 386 444 41,300 480 Climbing Chicago Center
04:08PM 40.8872 -85.6200 289° West 387 445 41,800 420 Climbing Chicago Center
04:09PM 40.9214 -85.7550 289° West 387 445 42,200 300 Climbing Chicago Center
04:10PM 40.9564 -85.8900 289° West 387 445 42,500 300 Climbing Chicago Center
04:11PM 40.9981 -86.0542 289° West 389 448 42,900 240 Climbing Chicago Center
04:12PM 41.0314 -86.1886 288° West 387 445 43,000  Climbing Chicago Center
04:13PM 41.0667 -86.3281 289° West 395 455 43,000  Level Chicago Center
04:15PM 41.1014 -86.4697 288° West 402 463 43,000  Level Chicago Center
04:16PM 41.1361 -86.6111 288° West 403 464 43,000  Level Chicago Center
04:17PM 41.1775 -86.7739 289° West 401 461 43,000  Level Chicago Center
04:18PM 41.2117 -86.9125 288° West 398 458 43,000  Level Chicago Center
04:19PM 41.2450 -87.0514 288° West 397 457 43,000  Level Chicago Center
04:20PM 41.2792 -87.1897 288° West 396 456 43,000  Level Chicago Center
04:21PM 41.3131 -87.3292 288° West 397 457 43,000  Level Chicago Center
04:22PM 41.3525 -87.4956 288° West 396 456 43,000  Level Chicago Center
04:23PM 41.3861 -87.6350 288° West 397 457 43,000  Level Chicago Center
04:24PM 41.4189 -87.7739 288° West 397 457 43,000  Level Chicago Center
04:25PM 41.4511 -87.9133 287° West 399 459 43,000  Level Chicago Center
04:26PM 41.4867 -88.0586 288° West 403 464 43,000  Level Chicago Center
04:27PM 41.5214 -88.2108 287° West 395 455 43,000  Level Chicago Center
04:28PM 41.5458 -88.3539 283° West 402 463 43,000  Level Chicago Center
04:29PM 41.5444 -88.5019 269° West 405 466 43,100 240 Climbing Chicago Center
04:30PM 41.5386 -88.6800 268° West 403 464 43,500 300 Climbing Chicago Center
04:31PM 41.5331 -88.8272 267° West 401 461 43,800 240 Climbing Chicago Center
04:32PM 41.5281 -88.9756 267° West 401 461 44,100 240 Climbing Chicago Center
04:33PM 41.5222 -89.1225 267° West 400 460 44,400 240 Climbing Chicago Center
04:34PM 41.5172 -89.2886 268° West 399 459 44,700 240 Climbing Chicago Center
04:35PM 41.5111 -89.4325 267° West 392 451 45,000 120 Climbing Chicago Center
04:36PM 41.5047 -89.5781 267° West 393 452 45,000  Level Chicago Center
04:37PM 41.4994 -89.7233 267° West 395 455 45,000  Level Chicago Center
04:38PM 41.4917 -89.8711 266° West 399 459 45,000  Level Chicago Center
04:39PM 41.4847 -90.0483 267° West 401 461 45,000  Level Chicago Center
04:40PM 41.4789 -90.1950 267° West 400 460 45,000  Level Chicago Center
04:41PM 41.4711 -90.3442 266° West 404 465 45,000  Level Chicago Center
04:42PM 41.4636 -90.4919 266° West 403 464 45,000  Level Chicago Center
04:43PM 41.4553 -90.6425 266° West 407 468 45,000  Level Chicago Center
04:45PM 41.4469 -90.7908 266° West 405 466 45,000  Level Chicago Center
04:46PM 41.4372 -90.9678 266° West 401 461 45,000  Level Chicago Center
04:47PM 41.4289 -91.1150 266° West 400 460 45,000  Level Chicago Center
04:48PM 41.4203 -91.2622 266° West 401 461 45,000  Level Chicago Center
04:49PM 41.4114 -91.4222 266° West 402 463 45,000  Level Chicago Center
04:50PM 41.4028 -91.5689 266° West 401 461 45,000  Level Chicago Center
04:51PM 41.3933 -91.7183 265° West 405 466 45,000  Level Chicago Center
04:52PM 41.3844 -91.8667 265° West 405 466 45,000  Level Chicago Center
04:53PM 41.3744 -92.0436 266° West 402 463 45,000  Level Chicago Center
04:54PM 41.3631 -92.1922 264° West 404 465 45,000  Level Chicago Center
04:55PM 41.3542 -92.3392 265° West 401 461 45,000  Level Chicago Center
04:56PM 41.3436 -92.4864 265° West 402 463 45,000  Level Chicago Center
04:57PM 41.3333 -92.6333 265° West 402 463 45,000  Level Chicago Center
04:58PM 41.3206 -92.8097 265° West 403 464 45,000  Level Chicago Center
04:59PM 41.3156 -92.8969 266° West 401 461 45,000  Level Minneapolis Center
05:01PM 41.2914 -93.2219 264° West 405 466 45,000  Level Minneapolis Center
05:02PM 41.2800 -93.3697 264° West 406 467 45,000  Level Minneapolis Center
05:03PM 41.2692 -93.5161 264° West 404 465 45,000  Level Minneapolis Center
05:04PM 41.2592 -93.6611 265° West 401 461 45,000  Level Minneapolis Center
05:05PM 41.2467 -93.8094 264° West 405 466 45,000  Level Minneapolis Center
05:06PM 41.2328 -93.9844 264° West 402 463 45,000  Level Minneapolis Center
05:07PM 41.2214 -94.1286 264° West 398 458 45,000  Level Minneapolis Center
05:08PM 41.2097 -94.2714 264° West 396 456 45,000  Level Minneapolis Center
05:09PM 41.1969 -94.4161 263° West 395 455 45,000  Level Minneapolis Center
05:10PM 41.1819 -94.5903 264° West 395 455 45,000  Level Minneapolis Center
05:11PM 41.1703 -94.7361 264° West 397 457 45,000  Level Minneapolis Center
05:12PM 41.1572 -94.8825 263° West 399 459 45,000  Level Minneapolis Center
05:13PM 41.1439 -95.0267 263° West 397 457 45,000  Level Minneapolis Center
05:14PM 41.1294 -95.1731 263° West 399 459 45,000  Level Minneapolis Center
05:15PM 41.1161 -95.3189 263° West 399 459 45,000  Level Minneapolis Center
05:16PM 41.1017 -95.4644 263° West 398 458 45,000  Level Minneapolis Center
05:17PM 41.0856 -95.6375 263° West 394 453 45,000  Level Minneapolis Center
05:18PM 41.0714 -95.7811 263° West 391 450 45,000  Level Minneapolis Center
05:19PM 41.0569 -95.9264 263° West 392 451 45,000  Level Minneapolis Center
05:20PM 41.0425 -96.0697 262° West 391 450 45,000  Level Minneapolis Center
05:21PM 41.0303 -96.2128 264° West 389 448 45,000  Level Minneapolis Center
05:23PM 41.0156 -96.3547 262° West 387 445 45,000  Level Minneapolis Center
05:24PM 41.0003 -96.4967 262° West 387 445 45,000  Level Minneapolis Center
05:25PM 40.9831 -96.6678 262° West 390 449 45,000  Level Minneapolis Center
05:26PM 40.9672 -96.8089 262° West 388 447 45,000  Level Minneapolis Center
05:27PM 40.9519 -96.9531 262° West 393 452 45,000  Level Minneapolis Center
05:28PM 40.9367 -97.0958 262° West 393 452 45,000  Level Minneapolis Center
05:29PM 40.9200 -97.2378 261° West 392 451 45,000  Level Minneapolis Center
05:30PM 40.9042 -97.3933 262° West 391 450 45,000  Level Minneapolis Center
05:31PM 40.8869 -97.5358 261° West 392 451 45,000  Level Minneapolis Center
05:32PM 40.8711 -97.6789 262° West 392 451 45,000  Level Minneapolis Center
05:33PM 40.8547 -97.8228 261° West 394 453 45,000  Level Minneapolis Center
05:34PM 40.8378 -97.9664 261° West 395 455 45,000  Level Minneapolis Center
05:35PM 40.8172 -98.1400 261° West 397 457 45,000  Level Minneapolis Center
05:36PM 40.7997 -98.2869 261° West 401 461 45,000  Level Minneapolis Center
05:37PM 40.7844 -98.4164 261° West 403 464 45,000  Level Minneapolis Center
05:38PM 40.7631 -98.5933 261° West 406 467 45,000  Level Minneapolis Center
05:39PM 40.7450 -98.7331 260° West 410 472 45,000  Level Minneapolis Center
05:40PM 40.7283 -98.8842 262° West 412 474 45,000  Level Minneapolis Center
05:41PM 40.7089 -99.0356 260° West 415 478 45,000  Level Minneapolis Center
05:42PM 40.6978 -99.1256 261° West 415 478 45,000  Level Denver Center
05:43PM 40.6778 -99.2775 260° West 418 481 45,000  Level Denver Center
05:44PM 40.6589 -99.4283 261° West 417 480 45,000  Level Denver Center
05:45PM 40.6381 -99.5794 260° West 419 482 45,000  Level Denver Center
05:46PM 40.6261 -99.7317 264° West 418 481 45,000  Level Denver Center
05:47PM 40.6139 -99.9050 265° West 420 483 45,000  Level Denver Center
05:48PM 40.6042 -100.0508 265° West 419 482 45,000  Level Denver Center
05:49PM 40.5922 -100.2217 265° West 419 482 45,000  Level Denver Center
05:50PM 40.5814 -100.3686 265° West 420 483 45,000  Level Denver Center
05:51PM 40.5686 -100.5431 265° West 425 489 45,000  Level Denver Center
05:52PM 40.5569 -100.6922 264° West 425 489 45,000  Level Denver Center
05:53PM 40.5442 -100.8675 265° West 427 491 45,000  Level Denver Center
05:54PM 40.5325 -101.0156 264° West 423 487 45,000  Level Denver Center
05:55PM 40.5214 -101.1636 264° West 424 488 45,000  Level Denver Center
05:56PM 40.5072 -101.3369 264° West 426 490 45,000 -420 Level Denver Center
05:57PM 40.4961 -101.4850 264° West 425 489 44,200 -1,020 Descending Denver Center
05:58PM 40.4828 -101.6503 264° West 412 474 42,900 -1,260 Descending Denver Center
05:59PM 40.4714 -101.7919 264° West 408 470 41,700 -1,260 Descending Denver Center
06:00PM 40.4564 -101.9619 263° West 418 481 40,400 -1,260 Descending Denver Center
06:01PM 40.4419 -102.1114 263° West 430 495 39,200 -1,140 Descending Denver Center
06:02PM 40.4275 -102.2883 264° West 436 502 38,100 -1,020 Descending Denver Center
06:03PM 40.4219 -102.4397 267° West 435 501 37,100 -1,020 Descending Denver Center
06:04PM 40.4158 -102.6172 267° West 437 503 36,000 -1,020 Descending Denver Center
06:05PM 40.4097 -102.7653 267° West 439 505 35,000 -1,560 Descending Denver Center
06:06PM 40.4042 -102.9272 267° West 445 512 32,800 -2,400 Descending Denver Center
06:08PM 40.3961 -103.1189 267° West 442 509 30,100 -2,400 Descending Denver Center
06:09PM 40.3903 -103.2825 267° West 450 518 27,900 -2,160 Descending Denver Center
06:10PM 40.3836 -103.4436 267° West 446 513 25,700 -2,100 Descending Denver Center
06:11PM 40.3758 -103.5981 266° West 431 496 23,600 -2,280 Descending Denver Center
06:12PM 40.3694 -103.7600 267° West 421 484 21,100 -2,220 Descending Denver Center
06:13PM 40.3644 -103.9025 267° West 372 428 19,100 -1,560 Descending Denver Center
06:14PM 40.3567 -104.0153 265° West 318 366 17,900 -1,380 Descending Denver Center
06:15PM 40.3278 -104.1281 251° West 304 350 16,300 -960 Descending Denver Center
06:16PM 40.2947 -104.2250 246° West 292 336 16,000 -120 Descending Denver Center
06:17PM 40.2664 -104.3369 252° West 299 344 16,100 -900 Climbing Denver Center
06:18PM 40.2447 -104.4419 255° West 300 345 14,200 -1,020 Descending Denver Center
06:19PM 40.2242 -104.5403 255° West 276 318 14,000 -1,320 Descending Denver Center
06:20PM 40.1819 -104.6186 235° Southwest 260 299 11,500 -1,500 Descending Denver Center
06:21PM 40.1403 -104.6997 236° Southwest 267 307 11,000 -360 Descending Denver Center
06:22PM 40.0961 -104.7750 233° Southwest 250 288 10,800 -480 Descending Denver Center
06:23PM 40.0353 -104.8322 216° Southwest 268 308 10,000 -1,140 Descending Denver Center
06:24PM 39.9700 -104.8972 217° Southwest 276 318 8,500 -1,500 Descending Denver Center
06:25PM 39.9117 -104.9567 218° Southwest 269 310 7,000 -780 Descending Denver Center
06:26PM 39.8714 -105.0164 229° Southwest 204 235 7,000 -420 Level Denver Center
06:27PM 39.8839 -105.0686 287° West 154 177 6,200 -720 Descending Denver Center
06:28PM 39.9053 -105.1089 305° West 141 162 5,600 -600 Descending Denver Center
06:30PM 39.9000 -105.1167 226° Southwest  Level FlightAware Approximate